This is the latest recevied weather packets stored in our database for station/object DM4WH-13. If no packets are shown the sender has not sent any weather packets the latest 10 day(s).
| Time | Temp. | Humidity | Pressure | Rain* | Wind** | Luminosity | Snow |
|---|---|---|---|---|---|---|---|
| 1777542922 | 12.78° C | 33% | 1033.9 hPa | 0 mm | 0.45 m/s, 249° | - | - |
| 1777542610 | 12.78° C | 32% | 1033.9 hPa | 0 mm | 0.45 m/s, 258° | - | - |
| 1777542322 | 12.22° C | 34% | 1034 hPa | 0 mm | 0.45 m/s, 51° | - | - |
| 1777542010 | 12.22° C | 33% | 1034 hPa | 0 mm | 0.45 m/s, 342° | - | - |
| 1777541722 | 12.22° C | 33% | 1034 hPa | 0 mm | 0.45 m/s, 102° | - | - |
| 1777541410 | 12.22° C | 34% | 1034 hPa | 0 mm | 0.45 m/s, 281° | - | - |
| 1777541122 | 12.22° C | 35% | 1034 hPa | 0 mm | 0 m/s | - | - |
| 1777540810 | 11.11° C | 34% | 1034.1 hPa | 0 mm | 0.45 m/s, 152° | - | - |
| 1777540522 | 10° C | 33% | 1034.2 hPa | 0 mm | 0.45 m/s, 48° | - | - |
| 1777540210 | 11.11° C | 35% | 1034.2 hPa | 0 mm | 0.89 m/s, 294° | - | - |
| 1777539922 | 10° C | 33% | 1034.3 hPa | 0 mm | 0.45 m/s, 30° | - | - |
| 1777539610 | 11.11° C | 33% | 1034.2 hPa | 0 mm | 0.45 m/s, 288° | - | - |
| 1777539322 | 11.11° C | 34% | 1034.2 hPa | 0 mm | 0.45 m/s, 44° | - | - |
| 1777539010 | 11.11° C | 32% | 1034.3 hPa | 0 mm | 0.45 m/s, 298° | - | - |
| 1777538723 | 11.11° C | 35% | 1034.3 hPa | 0 mm | 0.89 m/s, 306° | - | - |
| 1777538410 | 11.11° C | 35% | 1034.4 hPa | 0 mm | 0.45 m/s, 317° | - | - |
| 1777538122 | 11.11° C | 37% | 1034.3 hPa | 0 mm | 0.45 m/s, 300° | - | - |
| 1777537809 | 12.22° C | 34% | 1034.4 hPa | 0 mm | 0.45 m/s, 294° | - | - |
| 1777537535 | 11.11° C | 34% | 1034.4 hPa | 0 mm | 0 m/s | - | - |
| 1777537222 | 11.11° C | 38% | 1034.3 hPa | 0 mm | 0.45 m/s, 132° | - | - |
| 1777536909 | 11.11° C | 32% | 1034.2 hPa | 0 mm | 0.45 m/s, 11° | - | - |
| 1777536622 | 11.11° C | 35% | 1034.2 hPa | 0 mm | 0 m/s | - | - |
| 1777536309 | 12.22° C | 33% | 1034.3 hPa | 0 mm | 0.45 m/s, 41° | - | - |
| 1777536032 | 12.22° C | 34% | 1034.4 hPa | 0 mm | 0.45 m/s, 31° | - | - |
| 1777535710 | 12.22° C | 34% | 1034.4 hPa | 0 mm | 0.45 m/s, 144° | - | - |
* Rain latest hour (hover to see other rain measurements)
** Current wind speed in m/s (hover to see current wind gust speed)